Time;durP1;ratioP1;P1;durP2;ratioP2;P2;SDS_P1;SDS_P2;PMS_P1;PMS_P2;Temp;Humidity;BMP_temperature;BMP_pressure;BME280_temperature;BME280_humidity;BME280_pressure;Samples;Min_cycle;Max_cycle;Signal;HPM_P1;HPM_P2
2022/05/12 00:01:25;;;;;;;10.15;6.45;;;17.60;99.90;;;;;;5092650;28;20245;-79
2022/05/12 00:03:53;;;;;;;6.28;5.68;;;17.60;99.90;;;;;;5092325;28;20740;-79
2022/05/12 00:06:20;;;;;;;7.72;5.03;;;17.60;99.90;;;;;;5092698;28;20200;-81
2022/05/12 00:08:46;;;;;;;6.70;4.85;;;17.50;99.90;;;;;;5093154;28;20246;-79
2022/05/12 00:11:13;;;;;;;6.07;4.70;;;17.50;99.50;;;;;;5092926;28;20556;-80
2022/05/12 00:13:40;;;;;;;5.85;4.70;;;17.60;99.90;;;;;;5093045;28;20253;-79
2022/05/12 00:16:07;;;;;;;5.10;4.57;;;17.60;99.90;;;;;;5093051;28;20253;-80
2022/05/12 00:18:33;;;;;;;5.43;4.40;;;17.60;98.20;;;;;;5092975;28;20204;-81
2022/05/12 00:21:01;;;;;;;7.55;4.30;;;17.80;97.90;;;;;;5093176;28;20606;-79
2022/05/12 00:23:29;;;;;;;7.40;4.22;;;17.80;96.50;;;;;;5092546;28;20221;-81
2022/05/12 00:25:57;;;;;;;4.65;4.20;;;17.80;95.50;;;;;;5092419;28;20250;-80
2022/05/12 00:28:26;;;;;;;4.80;4.32;;;17.80;94.40;;;;;;5092797;28;20204;-80
2022/05/12 00:30:57;;;;;;;4.80;4.30;;;17.80;93.40;;;;;;5094094;28;20201;-80
2022/05/12 00:33:26;;;;;;;5.95;4.03;;;17.90;92.40;;;;;;5096658;28;20204;-79
2022/05/12 00:35:54;;;;;;;6.15;4.20;;;18.00;90.80;;;;;;5096057;28;20571;-79
2022/05/12 00:38:22;;;;;;;6.07;4.22;;;17.90;90.60;;;;;;5095408;28;20656;-79
2022/05/12 00:40:49;;;;;;;5.97;3.75;;;17.90;91.10;;;;;;5095652;28;20201;-79
2022/05/12 00:43:50;;;;;;;4.10;3.70;;;17.90;88.30;;;;;;5096393;28;20225;-79
2022/05/12 00:46:19;;;;;;;4.05;3.45;;;17.90;87.00;;;;;;5033050;28;20607;-79
2022/05/12 00:48:47;;;;;;;8.95;3.80;;;18.00;84.70;;;;;;5032976;28;20203;-79
2022/05/12 00:51:16;;;;;;;6.70;3.70;;;18.10;83.40;;;;;;5062007;28;20232;-80
2022/05/12 00:53:46;;;;;;;5.45;3.65;;;18.20;80.10;;;;;;5095425;28;20246;-79
2022/05/12 00:56:17;;;;;;;3.90;3.58;;;18.20;78.00;;;;;;5095589;28;20204;-79
2022/05/12 00:58:43;;;;;;;7.38;3.90;;;18.20;77.00;;;;;;5095931;28;20246;-79
2022/05/12 01:01:11;;;;;;;4.90;3.72;;;18.30;76.60;;;;;;5095492;28;20196;-78
2022/05/12 01:03:39;;;;;;;4.07;3.67;;;18.20;76.30;;;;;;5095394;28;20734;-79
2022/05/12 01:06:07;;;;;;;4.13;3.72;;;18.20;75.60;;;;;;5095705;28;20203;-79
2022/05/12 01:08:34;;;;;;;4.53;3.60;;;18.30;75.10;;;;;;5095436;28;20200;-79
2022/05/12 01:11:09;;;;;;;5.97;3.38;;;18.40;75.20;;;;;;5095609;28;20257;-80
2022/05/12 01:13:36;;;;;;;6.30;3.60;;;18.30;76.10;;;;;;5095101;28;20574;-79
2022/05/12 01:16:05;;;;;;;4.57;3.70;;;18.20;76.60;;;;;;5094874;28;20199;-79
2022/05/12 01:18:37;;;;;;;4.45;3.63;;;18.10;77.00;;;;;;5095019;28;20555;-79
2022/05/12 01:21:04;;;;;;;4.13;3.70;;;18.00;78.00;;;;;;5094929;28;20244;-80
2022/05/12 01:23:36;;;;;;;5.05;3.83;;;18.00;79.30;;;;;;5094692;28;20323;-80
2022/05/12 01:26:06;;;;;;;7.05;4.05;;;17.90;79.90;;;;;;5094671;28;20196;-79
2022/05/12 01:28:33;;;;;;;4.22;3.83;;;17.90;81.60;;;;;;5094579;28;20196;-79
2022/05/12 01:31:01;;;;;;;5.57;3.65;;;17.90;82.00;;;;;;5094736;28;20247;-79
2022/05/12 01:33:28;;;;;;;6.20;3.70;;;17.90;82.60;;;;;;5094584;28;20200;-79
2022/05/12 01:35:55;;;;;;;4.22;3.83;;;17.90;82.90;;;;;;5094578;28;20197;-79
2022/05/12 01:38:22;;;;;;;4.03;3.47;;;17.90;82.60;;;;;;5094477;28;20253;-79
2022/05/12 01:40:50;;;;;;;5.60;3.75;;;17.90;82.50;;;;;;5094341;28;20254;-79
2022/05/12 01:43:17;;;;;;;5.43;3.90;;;17.90;82.80;;;;;;5093399;28;20228;-79
2022/05/12 01:45:44;;;;;;;4.13;3.70;;;17.90;82.80;;;;;;5094481;28;20257;-79
2022/05/12 01:48:13;;;;;;;5.47;3.80;;;17.80;84.10;;;;;;5094301;28;20196;-79
2022/05/12 01:50:41;;;;;;;5.43;3.85;;;17.80;84.90;;;;;;5094088;28;20720;-80
2022/05/12 01:53:10;;;;;;;4.95;3.90;;;17.80;85.20;;;;;;5070253;28;20197;-79
2022/05/12 01:55:37;;;;;;;7.25;3.88;;;17.90;83.80;;;;;;5073767;28;20690;-79
2022/05/12 01:58:06;;;;;;;4.63;3.70;;;17.90;84.30;;;;;;5073853;28;20258;-80
2022/05/12 02:00:34;;;;;;;7.00;3.95;;;17.80;85.50;;;;;;5073886;28;20649;-79
2022/05/12 02:03:01;;;;;;;4.22;3.85;;;17.70;85.80;;;;;;5073697;28;20220;-79
2022/05/12 02:05:29;;;;;;;4.28;3.88;;;17.70;87.30;;;;;;5074193;28;20197;-80
2022/05/12 02:07:56;;;;;;;6.35;4.43;;;17.60;88.00;;;;;;5074341;28;20200;-80
2022/05/12 02:10:25;;;;;;;3.88;3.47;;;17.60;89.40;;;;;;5074222;28;20656;-80
2022/05/12 02:12:52;;;;;;;4.45;3.58;;;17.60;90.10;;;;;;5074415;28;20248;-79
2022/05/12 02:15:20;;;;;;;4.47;3.72;;;17.60;90.40;;;;;;5074144;28;20204;-80
2022/05/12 02:17:49;;;;;;;4.57;4.00;;;17.50;90.70;;;;;;5074012;28;20239;-80
2022/05/12 02:20:18;;;;;;;5.30;3.65;;;17.50;91.70;;;;;;5076300;28;20193;-79
2022/05/12 02:22:45;;;;;;;5.03;4.05;;;17.40;92.00;;;;;;5073494;28;20251;-79
2022/05/12 02:25:12;;;;;;;4.68;4.10;;;17.30;93.00;;;;;;5073315;28;20297;-79
2022/05/12 02:27:42;;;;;;;4.75;3.90;;;17.30;93.80;;;;;;5073358;28;20255;-79
2022/05/12 02:30:11;;;;;;;4.57;3.78;;;17.20;94.80;;;;;;5073228;28;20730;-79
2022/05/12 02:32:39;;;;;;;5.90;4.53;;;17.20;96.10;;;;;;5073155;28;20253;-79
2022/05/12 02:35:07;;;;;;;5.90;4.28;;;17.10;97.30;;;;;;5072892;28;20205;-79
2022/05/12 02:37:33;;;;;;;5.45;4.07;;;17.10;98.80;;;;;;5073263;28;20254;-79
2022/05/12 02:40:00;;;;;;;6.90;4.05;;;17.10;99.90;;;;;;5073143;28;20243;-79
2022/05/12 02:42:27;;;;;;;7.35;4.45;;;17.30;99.90;;;;;;5073120;28;20596;-79
2022/05/12 02:44:53;;;;;;;6.05;4.20;;;17.30;99.90;;;;;;5072962;28;20233;-79
2022/05/12 02:47:20;;;;;;;5.85;4.03;;;17.20;99.90;;;;;;5072900;28;20664;-79
2022/05/12 02:49:48;;;;;;;6.78;4.10;;;17.20;99.90;;;;;;5073348;28;20292;-79
2022/05/12 02:52:15;;;;;;;5.72;4.90;;;17.20;99.90;;;;;;5073704;28;20239;-79
2022/05/12 02:54:42;;;;;;;4.47;4.07;;;17.10;99.90;;;;;;5082257;28;20192;-80
2022/05/12 02:57:09;;;;;;;5.20;4.57;;;17.20;99.90;;;;;;5075888;28;20205;-80
2022/05/12 02:59:37;;;;;;;4.55;3.83;;;17.10;99.90;;;;;;5072903;28;20656;-80
2022/05/12 03:02:04;;;;;;;4.68;4.20;;;17.10;99.90;;;;;;5072924;28;20296;-79
2022/05/12 03:04:31;;;;;;;5.43;4.30;;;17.10;99.90;;;;;;5073115;28;20224;-79
2022/05/12 03:06:59;;;;;;;4.22;3.88;;;17.10;99.90;;;;;;5073120;28;20270;-79
2022/05/12 03:09:26;;;;;;;5.80;4.22;;;17.00;99.90;;;;;;5072917;28;20196;-79
2022/05/12 03:11:53;;;;;;;6.28;4.18;;;17.10;99.90;;;;;;5072918;28;20334;-80
2022/05/12 03:14:19;;;;;;;4.80;4.35;;;17.00;99.90;;;;;;5072908;28;20197;-80
2022/05/12 03:16:46;;;;;;;4.70;4.03;;;17.00;99.90;;;;;;5072615;28;20197;-80
2022/05/12 03:19:14;;;;;;;5.13;3.97;;;17.00;99.90;;;;;;5072565;28;20595;-80
2022/05/12 03:21:40;;;;;;;7.75;4.35;;;17.00;99.90;;;;;;5072611;28;20197;-80
2022/05/12 03:24:10;;;;;;;4.90;4.15;;;17.00;99.90;;;;;;5072540;28;20618;-80
2022/05/12 03:26:36;;;;;;;6.10;4.07;;;17.00;99.90;;;;;;5072901;28;20193;-80
2022/05/12 03:29:03;;;;;;;4.43;4.03;;;17.00;99.90;;;;;;5072727;28;20193;-79
2022/05/12 03:31:30;;;;;;;4.22;3.83;;;17.00;99.90;;;;;;5073201;28;20250;-80
2022/05/12 03:33:56;;;;;;;7.55;4.40;;;17.00;99.90;;;;;;5073417;28;20201;-79
2022/05/12 03:36:23;;;;;;;5.63;4.32;;;17.00;99.90;;;;;;5073109;28;20193;-80
2022/05/12 03:38:49;;;;;;;6.32;4.30;;;17.00;99.90;;;;;;5072539;28;20205;-80
2022/05/12 03:41:18;;;;;;;7.15;4.00;;;17.00;99.90;;;;;;5072465;28;20216;-80
2022/05/12 03:46:30;;;;;;;6.97;4.07;;;16.90;99.90;;;;;;5072414;28;20298;-80
2022/05/12 03:48:57;;;;;;;4.57;4.10;;;16.90;99.90;;;;;;5072275;28;20197;-80
2022/05/12 03:51:24;;;;;;;9.48;4.40;;;16.80;99.90;;;;;;5072367;28;20286;-80
2022/05/12 03:53:50;;;;;;;6.10;4.45;;;16.80;99.90;;;;;;5072265;28;20200;-79
2022/05/12 03:56:19;;;;;;;6.45;3.92;;;16.80;99.90;;;;;;5072053;28;20197;-80
2022/05/12 03:58:46;;;;;;;5.18;4.60;;;16.80;99.90;;;;;;5072139;28;20201;-80
2022/05/12 04:01:12;;;;;;;5.97;4.65;;;16.70;99.90;;;;;;5072244;28;20292;-80
2022/05/12 04:03:41;;;;;;;4.93;4.43;;;16.70;99.90;;;;;;5072141;28;20246;-80
2022/05/12 04:06:08;;;;;;;6.35;4.25;;;16.70;99.90;;;;;;5073639;28;20232;-79
2022/05/12 04:08:36;;;;;;;6.45;4.32;;;16.70;99.90;;;;;;5076107;28;20205;-79
2022/05/12 04:11:03;;;;;;;6.45;3.97;;;16.60;99.90;;;;;;5075855;28;20646;-79
2022/05/12 04:13:32;;;;;;;4.72;3.95;;;16.50;99.90;;;;;;5075933;28;20212;-78
2022/05/12 04:15:58;;;;;;;9.48;4.38;;;16.50;99.90;;;;;;5075974;28;20215;-78
2022/05/12 04:18:26;;;;;;;8.00;4.20;;;16.50;99.90;;;;;;5075726;28;20622;-79
2022/05/12 04:20:53;;;;;;;6.25;4.43;;;16.50;99.90;;;;;;5075734;28;20204;-80
2022/05/12 04:23:20;;;;;;;8.88;4.25;;;16.50;99.90;;;;;;5075720;28;20232;-81
2022/05/12 04:25:46;;;;;;;4.93;4.07;;;16.60;99.90;;;;;;5075988;28;20224;-79
2022/05/12 04:28:13;;;;;;;7.00;4.20;;;16.60;99.90;;;;;;5075633;28;20197;-79
2022/05/12 04:30:41;;;;;;;4.47;3.75;;;16.60;99.90;;;;;;5075487;28;20722;-80
2022/05/12 04:35:51;;;;;;;4.77;4.10;;;16.70;99.90;;;;;;5035049;28;20212;-80
2022/05/12 04:38:18;;;;;;;5.57;4.03;;;16.70;99.90;;;;;;5075808;28;20255;-80
2022/05/12 04:40:45;;;;;;;6.20;4.40;;;16.70;99.90;;;;;;5075551;28;20732;-79
2022/05/12 04:43:12;;;;;;;5.05;4.50;;;16.70;99.90;;;;;;5075388;28;20706;-79
2022/05/12 04:45:40;;;;;;;6.15;4.28;;;16.70;99.90;;;;;;5075397;28;20825;-79
2022/05/12 04:48:09;;;;;;;6.80;4.00;;;16.70;99.90;;;;;;5075420;28;20247;-79
2022/05/12 04:50:40;;;;;;;5.65;4.00;;;16.70;99.90;;;;;;5075219;28;20201;-78
2022/05/12 04:53:08;;;;;;;7.93;3.78;;;16.80;99.90;;;;;;5075064;28;20225;-77
2022/05/12 04:55:35;;;;;;;7.68;3.80;;;16.80;99.90;;;;;;5075507;28;20205;-77
2022/05/12 04:58:02;;;;;;;6.30;4.03;;;16.90;99.90;;;;;;5075207;28;20204;-78
2022/05/12 05:00:31;;;;;;;5.38;4.18;;;16.90;99.90;;;;;;5075310;28;20246;-77
2022/05/12 05:02:58;;;;;;;7.78;4.00;;;17.00;99.90;;;;;;5075086;28;20660;-77
2022/05/12 05:05:27;;;;;;;6.18;3.55;;;17.10;99.90;;;;;;5075322;28;20266;-77
2022/05/12 05:07:54;;;;;;;4.88;3.30;;;17.20;99.90;;;;;;5075889;28;20201;-77
2022/05/12 05:10:21;;;;;;;4.38;3.10;;;17.30;99.90;;;;;;5076479;28;20223;-78
2022/05/12 05:12:48;;;;;;;5.07;3.20;;;17.40;99.90;;;;;;5075436;28;20707;-79
2022/05/12 05:15:16;;;;;;;4.22;3.10;;;17.50;99.90;;;;;;5076386;28;20201;-77
2022/05/12 05:17:43;;;;;;;3.35;2.80;;;17.60;99.90;;;;;;5075775;28;20598;-77
2022/05/12 05:20:14;;;;;;;5.63;3.15;;;17.60;99.90;;;;;;5075007;28;20303;-77
2022/05/12 05:22:42;;;;;;;7.22;3.13;;;17.70;99.90;;;;;;5074700;28;20196;-77
2022/05/12 05:25:10;;;;;;;9.43;3.13;;;17.80;99.90;;;;;;5074688;28;20225;-77
2022/05/12 05:27:37;;;;;;;3.42;2.85;;;17.80;99.90;;;;;;5066403;28;20636;-78
2022/05/12 05:30:05;;;;;;;4.47;2.80;;;17.80;99.90;;;;;;5074436;28;20499;-78
2022/05/12 05:32:32;;;;;;;7.47;3.20;;;17.90;99.90;;;;;;5074363;28;20208;-77
2022/05/12 05:34:58;;;;;;;6.72;3.28;;;17.90;99.90;;;;;;5074573;28;20201;-78
2022/05/12 05:37:25;;;;;;;5.80;2.88;;;17.90;99.90;;;;;;5074466;28;20205;-78
2022/05/12 05:39:53;;;;;;;3.83;2.90;;;18.00;99.90;;;;;;5074475;28;20556;-78
2022/05/12 05:42:20;;;;;;;4.78;2.80;;;17.90;99.90;;;;;;5074273;28;20197;-78
2022/05/12 05:44:48;;;;;;;3.53;2.97;;;18.00;99.90;;;;;;5074030;28;20228;-78
2022/05/12 05:47:15;;;;;;;8.13;2.90;;;18.10;99.90;;;;;;5074501;28;20193;-77
2022/05/12 05:49:42;;;;;;;7.18;3.08;;;18.10;99.90;;;;;;5074122;28;20201;-78
2022/05/12 05:54:55;;;;;;;3.92;3.03;;;18.20;99.90;;;;;;5074090;28;20201;-79
2022/05/12 05:57:23;;;;;;;6.43;2.80;;;18.20;99.90;;;;;;5073860;28;20224;-79
2022/05/12 05:59:51;;;;;;;4.85;2.90;;;18.30;99.90;;;;;;5074193;28;20296;-77
2022/05/12 06:02:17;;;;;;;5.50;2.80;;;18.40;99.90;;;;;;5074255;28;20203;-78
2022/05/12 06:04:44;;;;;;;5.40;3.03;;;18.50;99.90;;;;;;5074025;28;20220;-78
2022/05/12 06:07:11;;;;;;;5.78;3.03;;;18.60;99.90;;;;;;5074113;28;20232;-78
2022/05/12 06:09:37;;;;;;;5.38;3.10;;;18.70;99.90;;;;;;5073777;28;20227;-79
2022/05/12 06:12:06;;;;;;;4.18;2.78;;;18.80;99.90;;;;;;5074074;28;20204;-78
2022/05/12 06:14:33;;;;;;;3.67;2.83;;;18.70;99.90;;;;;;5074033;28;20255;-79
2022/05/12 06:17:00;;;;;;;3.17;2.88;;;18.70;99.90;;;;;;5073799;28;20200;-78
2022/05/12 06:19:27;;;;;;;3.90;2.70;;;18.70;99.90;;;;;;5073603;28;20243;-78
2022/05/12 06:21:53;;;;;;;7.57;3.00;;;18.60;99.90;;;;;;5073477;28;20208;-77
2022/05/12 06:24:20;;;;;;;3.60;2.72;;;18.40;99.90;;;;;;5073441;28;20197;-78
2022/05/12 06:26:47;;;;;;;3.83;2.75;;;18.50;99.90;;;;;;5074019;28;20223;-78
2022/05/12 06:29:15;;;;;;;4.53;2.50;;;18.50;99.90;;;;;;5072934;28;20247;-78
2022/05/12 06:31:42;;;;;;;4.82;2.75;;;18.60;99.90;;;;;;5073498;28;20205;-78
2022/05/12 06:34:09;;;;;;;5.18;2.63;;;18.50;99.90;;;;;;5073332;28;20200;-78
2022/05/12 06:36:35;;;;;;;4.90;2.78;;;18.50;99.90;;;;;;5073387;28;20201;-77
2022/05/12 06:39:02;;;;;;;4.10;2.90;;;18.40;99.90;;;;;;5073245;28;20379;-78
2022/05/12 06:41:30;;;;;;;6.40;3.10;;;18.60;99.90;;;;;;5073366;28;20656;-78
2022/05/12 06:43:56;;;;;;;4.45;2.78;;;18.60;99.90;;;;;;5073289;28;20567;-79
2022/05/12 06:46:25;;;;;;;5.68;2.80;;;18.70;99.90;;;;;;5073078;28;20228;-78
2022/05/12 06:48:53;;;;;;;5.18;2.65;;;18.90;99.90;;;;;;5073051;28;20287;-78
2022/05/12 06:51:20;;;;;;;2.78;2.50;;;18.90;99.90;;;;;;5072888;28;20237;-78
2022/05/12 06:53:47;;;;;;;6.20;2.63;;;18.90;99.90;;;;;;5073264;28;20239;-78
2022/05/12 06:56:15;;;;;;;5.60;2.33;;;18.60;99.90;;;;;;5073139;28;20266;-78
2022/05/12 06:58:42;;;;;;;4.13;2.55;;;18.50;99.90;;;;;;5072948;28;20227;-78
2022/05/12 07:01:09;;;;;;;5.13;2.83;;;18.50;99.90;;;;;;5072729;28;20595;-78
2022/05/12 07:03:38;;;;;;;4.68;2.75;;;18.50;99.90;;;;;;5072699;28;20545;-79
2022/05/12 07:06:07;;;;;;;4.18;2.65;;;18.50;99.90;;;;;;5072659;28;20224;-78
2022/05/12 07:08:38;;;;;;;3.42;2.67;;;18.50;99.90;;;;;;5072957;28;20197;-78
2022/05/12 07:11:06;;;;;;;3.58;2.20;;;18.60;99.90;;;;;;5072938;28;20301;-78
2022/05/12 07:13:32;;;;;;;3.50;2.10;;;18.80;99.90;;;;;;5072716;28;20204;-78
2022/05/12 07:15:59;;;;;;;9.98;2.45;;;18.70;99.90;;;;;;5072812;28;20209;-78
2022/05/12 07:18:26;;;;;;;5.13;2.53;;;18.70;99.90;;;;;;5072604;28;20196;-78
2022/05/12 07:26:39;;;;;;;3.33;2.33;;;18.80;99.90;;;;;;5072590;28;20235;-77
2022/05/12 07:29:09;;;;;;;6.13;2.58;;;19.00;99.90;;;;;;5072869;28;20215;-77
2022/05/12 07:31:36;;;;;;;6.20;2.65;;;18.90;99.90;;;;;;5072676;28;20613;-78
2022/05/12 07:34:03;;;;;;;3.35;2.25;;;19.00;99.90;;;;;;5072685;28;20209;-77
2022/05/12 07:36:33;;;;;;;3.53;2.47;;;18.90;99.90;;;;;;5073486;28;20232;-77
2022/05/12 07:39:01;;;;;;;3.55;2.50;;;18.80;99.90;;;;;;5072847;28;20205;-77
2022/05/12 07:41:28;;;;;;;7.43;2.38;;;18.70;99.90;;;;;;5076328;28;20199;-77
2022/05/12 07:43:56;;;;;;;3.50;2.10;;;18.90;99.90;;;;;;5076708;28;20664;-77
2022/05/12 07:46:24;;;;;;;4.47;2.25;;;19.00;99.90;;;;;;5076438;28;20691;-78
2022/05/12 07:48:52;;;;;;;6.22;2.40;;;19.10;99.90;;;;;;5076560;28;20204;-77
2022/05/12 07:51:20;;;;;;;2.75;2.13;;;19.20;99.90;;;;;;5076277;28;20224;-77
2022/05/12 07:53:49;;;;;;;4.82;2.20;;;19.40;99.90;;;;;;5076359;28;20232;-77
2022/05/12 07:56:17;;;;;;;2.00;1.80;;;19.50;99.90;;;;;;5076581;28;20603;-77
2022/05/12 07:58:44;;;;;;;3.95;2.38;;;19.60;99.90;;;;;;5076382;28;20205;-77
2022/05/12 08:01:12;;;;;;;3.28;2.08;;;19.50;99.90;;;;;;5076388;28;20204;-77
2022/05/12 08:03:39;;;;;;;3.35;2.00;;;19.60;99.90;;;;;;5076310;28;20201;-78
2022/05/12 08:06:07;;;;;;;2.13;1.80;;;19.90;99.90;;;;;;5076066;28;20217;-77
2022/05/12 08:08:35;;;;;;;5.05;2.72;;;20.00;99.90;;;;;;5076112;28;20197;-77
2022/05/12 08:11:05;;;;;;;4.05;2.25;;;19.80;99.90;;;;;;5076732;28;20201;-78
2022/05/12 08:13:32;;;;;;;5.85;2.03;;;19.70;99.90;;;;;;5076480;28;20254;-77
2022/05/12 08:15:59;;;;;;;5.95;2.33;;;19.80;99.90;;;;;;5076281;28;20205;-78
2022/05/12 08:18:27;;;;;;;3.50;1.90;;;19.90;99.90;;;;;;5076573;28;20200;-77
2022/05/12 08:20:54;;;;;;;4.22;2.22;;;19.90;99.90;;;;;;5076899;28;20250;-80
2022/05/12 08:23:22;;;;;;;3.45;2.00;;;19.70;99.90;;;;;;5076551;28;20626;-77
2022/05/12 08:25:50;;;;;;;5.68;2.17;;;20.00;99.90;;;;;;5075671;28;20286;-77
2022/05/12 08:28:20;;;;;;;4.75;2.25;;;20.00;99.90;;;;;;5075733;28;20219;-77
2022/05/12 08:30:49;;;;;;;2.38;1.85;;;20.10;99.90;;;;;;5075609;28;20200;-77
2022/05/12 08:33:17;;;;;;;2.17;1.98;;;20.20;99.90;;;;;;5075496;28;20548;-77
2022/05/12 08:35:44;;;;;;;2.50;2.20;;;20.20;99.90;;;;;;5075346;28;20262;-78
2022/05/12 08:38:12;;;;;;;6.15;2.15;;;20.50;99.90;;;;;;5075498;28;20275;-78
2022/05/12 08:40:47;;;;;;;4.80;2.30;;;20.50;99.90;;;;;;5075174;28;20737;-77
2022/05/12 08:43:17;;;;;;;6.90;2.28;;;20.70;99.90;;;;;;5075679;28;20710;-78
2022/05/12 08:45:47;;;;;;;5.25;2.30;;;21.20;99.90;;;;;;5075569;28;20213;-77
2022/05/12 08:48:16;;;;;;;4.05;2.47;;;21.00;99.90;;;;;;5075853;28;20590;-77
2022/05/12 08:50:44;;;;;;;5.93;2.47;;;20.60;99.90;;;;;;5075243;28;20196;-76
2022/05/12 08:53:14;;;;;;;7.70;2.50;;;20.60;99.90;;;;;;5074365;28;20197;-76
2022/05/12 08:55:46;;;;;;;5.10;2.30;;;20.50;99.90;;;;;;5075417;28;20250;-77
2022/05/12 08:58:20;;;;;;;5.32;2.88;;;21.40;99.90;;;;;;5075026;28;20598;-76
2022/05/12 09:00:57;;;;;;;5.32;2.20;;;21.50;99.90;;;;;;5075155;28;20201;-77
2022/05/12 09:03:35;;;;;;;6.20;2.72;;;21.70;99.90;;;;;;5075049;28;20196;-76
2022/05/12 09:06:04;;;;;;;5.13;2.60;;;21.90;99.90;;;;;;5075117;28;20683;-77
2022/05/12 09:08:38;;;;;;;4.80;2.70;;;22.00;99.90;;;;;;5074804;28;20200;-77
2022/05/12 09:11:11;;;;;;;5.75;2.47;;;21.20;99.90;;;;;;5074747;28;20203;-77
2022/05/12 09:13:43;;;;;;;3.28;2.55;;;21.20;99.90;;;;;;5074641;28;20201;-77
2022/05/12 09:16:16;;;;;;;4.95;2.90;;;21.10;99.90;;;;;;5074737;28;20196;-77
2022/05/12 09:18:43;;;;;;;8.13;2.90;;;21.30;99.90;;;;;;5074759;28;20648;-76
2022/05/12 09:21:13;;;;;;;3.92;2.65;;;21.20;99.90;;;;;;5074539;28;20201;-77
2022/05/12 09:23:39;;;;;;;4.28;2.70;;;20.90;99.90;;;;;;5074744;28;20197;-78
2022/05/12 09:26:31;;;;;;;3.70;3.05;;;21.60;99.90;;;;;;5074504;28;20576;-77
2022/05/12 09:29:12;;;;;;;3.15;2.85;;;21.50;99.90;;;;;;5074477;28;20197;-77
2022/05/12 09:31:44;;;;;;;3.47;2.67;;;21.40;99.90;;;;;;5074320;28;20200;-77
2022/05/12 09:34:20;;;;;;;7.68;2.63;;;21.10;99.90;;;;;;5074543;28;20254;-77
2022/05/12 09:36:47;;;;;;;10.52;3.00;;;21.00;99.90;;;;;;5074613;28;20204;-77
2022/05/12 09:39:32;;;;;;;6.50;3.17;;;21.10;99.90;;;;;;5074748;28;20243;-78
2022/05/12 09:42:01;;;;;;;4.10;2.58;;;21.30;99.90;;;;;;5074646;28;20657;-78
2022/05/12 09:44:30;;;;;;;4.03;2.70;;;21.50;99.90;;;;;;5074581;28;20246;-79
2022/05/12 09:47:01;;;;;;;3.58;2.60;;;21.10;99.90;;;;;;5074326;28;20228;-78
2022/05/12 09:49:32;;;;;;;2.92;2.60;;;21.40;99.90;;;;;;5074527;28;20197;-77
2022/05/12 09:52:18;;;;;;;7.38;2.72;;;21.10;99.90;;;;;;5074212;28;20235;-77
2022/05/12 09:54:46;;;;;;;2.90;2.60;;;21.10;99.90;;;;;;5074593;28;20300;-78
2022/05/12 09:57:16;;;;;;;6.15;3.00;;;21.10;99.90;;;;;;5074534;28;20554;-78
2022/05/12 09:59:45;;;;;;;7.32;2.75;;;21.10;99.90;;;;;;5074301;28;20200;-81
2022/05/12 10:08:11;;;;;;;3.45;2.53;;;21.50;99.90;;;;;;5074274;28;20232;-78
2022/05/12 10:10:38;;;;;;;4.75;2.55;;;21.20;99.90;;;;;;5074384;28;20200;-78
2022/05/12 10:13:11;;;;;;;4.32;2.70;;;21.50;99.90;;;;;;5074015;28;20250;-77
2022/05/12 10:15:41;;;;;;;4.82;2.63;;;21.20;99.90;;;;;;5073664;28;20266;-78
2022/05/12 10:18:21;;;;;;;4.50;2.50;;;21.70;99.90;;;;;;5073753;28;20262;-78
2022/05/12 10:20:53;;;;;;;5.28;2.78;;;21.70;99.90;;;;;;5073676;28;20255;-78
2022/05/12 10:23:26;;;;;;;6.10;2.47;;;21.20;99.90;;;;;;5073651;28;20334;-78
2022/05/12 10:26:12;;;;;;;4.28;2.60;;;21.20;99.90;;;;;;5090140;27;20553;-72
2022/05/12 10:28:49;;;;;;;4.05;2.45;;;22.00;99.90;;;;;;5090145;28;20258;-72
2022/05/12 10:31:27;;;;;;;3.47;2.50;;;22.80;98.60;;;;;;5090096;28;20648;-72
2022/05/12 10:34:23;;;;;;;3.53;2.53;;;22.70;94.20;;;;;;5089986;28;20710;-71
2022/05/12 10:36:58;;;;;;;5.90;2.60;;;22.50;94.20;;;;;;5089974;28;20652;-72
2022/05/12 10:39:30;;;;;;;3.30;2.63;;;21.70;97.30;;;;;;5090245;28;20271;-71
2022/05/12 10:42:18;;;;;;;5.15;2.60;;;22.00;96.60;;;;;;5091916;28;20200;-72
2022/05/12 10:45:14;;;;;;;5.95;2.90;;;21.90;97.10;;;;;;5090389;28;20315;-71
2022/05/12 10:48:05;;;;;;;3.17;2.38;;;22.60;95.20;;;;;;5090206;28;20652;-72
2022/05/12 10:50:39;;;;;;;4.68;2.80;;;22.60;94.00;;;;;;5089776;28;20195;-72
2022/05/12 10:53:15;;;;;;;5.32;2.50;;;23.10;93.50;;;;;;5089688;28;20201;-72
2022/05/12 10:55:50;;;;;;;5.32;2.63;;;23.90;90.40;;;;;;5089832;28;20196;-72
2022/05/12 10:58:28;;;;;;;5.10;2.55;;;23.10;90.10;;;;;;5089454;28;20302;-72
2022/05/12 11:01:10;;;;;;;4.55;2.33;;;23.60;87.80;;;;;;5089455;28;20192;-72
2022/05/12 11:03:41;;;;;;;4.63;2.67;;;23.00;90.10;;;;;;5089328;28;20203;-72
2022/05/12 11:06:13;;;;;;;5.35;2.60;;;22.10;89.70;;;;;;5089618;28;20250;-72
2022/05/12 11:08:43;;;;;;;6.43;2.60;;;21.70;91.40;;;;;;5089533;28;20200;-73
2022/05/12 11:11:15;;;;;;;5.60;2.50;;;22.40;90.50;;;;;;5089452;28;20314;-72
2022/05/12 11:13:47;;;;;;;5.20;2.60;;;21.80;91.10;;;;;;5089377;28;20214;-73
2022/05/12 11:16:17;;;;;;;12.90;2.50;;;22.50;91.20;;;;;;5089549;28;20192;-73
2022/05/12 11:18:49;;;;;;;3.88;2.30;;;24.10;86.00;;;;;;5089580;28;20575;-73
2022/05/12 11:21:19;;;;;;;9.05;3.10;;;25.10;81.20;;;;;;5089272;28;20201;-73
2022/05/12 11:23:56;;;;;;;6.60;2.33;;;24.50;76.00;;;;;;5088942;28;20201;-73
2022/05/12 11:26:39;;;;;;;4.18;2.22;;;24.70;74.70;;;;;;5089144;28;20196;-73
2022/05/12 11:32:10;;;;;;;4.35;2.30;;;25.10;72.40;;;;;;5089757;28;20548;-73
2022/05/12 11:34:39;;;;;;;4.90;2.50;;;23.80;71.70;;;;;;5088864;28;20208;-73
2022/05/12 11:37:27;;;;;;;5.13;2.72;;;22.50;76.60;;;;;;5077177;28;20197;-73
2022/05/12 11:39:56;;;;;;;3.72;2.83;;;23.60;78.50;;;;;;5075531;28;20254;-73
2022/05/12 11:42:25;;;;;;;5.13;2.47;;;24.50;73.70;;;;;;5075289;28;20247;-73
2022/05/12 11:44:59;;;;;;;5.78;2.58;;;24.20;74.10;;;;;;5075059;28;20231;-74
2022/05/12 11:48:07;;;;;;;5.53;2.63;;;23.20;76.10;;;;;;5075342;28;20201;-74
2022/05/12 11:50:53;;;;;;;3.95;2.40;;;23.10;78.80;;;;;;5075225;28;20255;-73
2022/05/12 11:53:23;;;;;;;4.00;2.45;;;23.70;79.30;;;;;;5075082;28;20201;-73
2022/05/12 11:56:04;;;;;;;6.15;2.72;;;24.70;74.00;;;;;;5075371;28;20201;-73
2022/05/12 11:58:40;;;;;;;5.03;2.30;;;24.20;71.80;;;;;;5075205;28;20247;-74
2022/05/12 12:01:10;;;;;;;5.50;2.28;;;23.40;73.90;;;;;;5075046;28;20660;-73
2022/05/12 12:03:58;;;;;;;2.85;2.38;;;23.80;73.00;;;;;;5074943;28;20242;-74
2022/05/12 12:06:43;;;;;;;2.88;2.30;;;24.10;69.20;;;;;;5075068;28;20229;-74
2022/05/12 12:09:31;;;;;;;2.70;2.10;;;23.20;72.90;;;;;;5074946;28;20200;-72
2022/05/12 12:11:58;;;;;;;4.30;2.13;;;23.80;74.80;;;;;;5076567;28;20197;-73
2022/05/12 12:14:56;;;;;;;5.65;2.30;;;24.90;70.20;;;;;;5076444;28;20200;-74
2022/05/12 12:17:32;;;;;;;4.50;2.38;;;25.30;68.00;;;;;;5076896;28;20247;-73
2022/05/12 12:20:04;;;;;;;5.25;2.10;;;26.70;59.20;;;;;;5076282;28;20197;-73
2022/05/12 12:22:47;;;;;;;6.32;2.30;;;27.10;58.90;;;;;;5076715;28;20201;-73
2022/05/12 12:25:26;;;;;;;6.70;2.15;;;26.20;56.70;;;;;;5075550;28;20332;-73
2022/05/12 12:28:23;;;;;;;3.15;1.90;;;25.80;58.10;;;;;;5076242;28;20243;-72
2022/05/12 12:31:22;;;;;;;6.78;2.50;;;25.90;59.00;;;;;;5078583;28;20652;-74
2022/05/12 12:34:09;;;;;;;3.40;2.13;;;26.90;56.80;;;;;;5079299;28;20205;-73
2022/05/12 12:36:56;;;;;;;3.20;1.95;;;28.10;54.00;;;;;;5079654;28;20200;-74
2022/05/12 12:39:39;;;;;;;3.03;2.40;;;27.60;51.90;;;;;;5075722;28;20254;-73
2022/05/12 12:42:16;;;;;;;7.00;2.83;;;27.40;51.50;;;;;;5074321;28;20197;-73
2022/05/12 12:44:44;;;;;;;5.60;2.00;;;26.50;51.90;;;;;;5074217;28;20220;-74
2022/05/12 12:47:17;;;;;;;4.47;2.40;;;27.40;50.00;;;;;;5073441;28;20204;-74
2022/05/12 12:49:51;;;;;;;4.20;2.05;;;27.50;49.50;;;;;;5073930;28;20258;-74
2022/05/12 12:52:19;;;;;;;5.78;2.40;;;28.10;46.60;;;;;;5074098;28;20250;-73
2022/05/12 12:57:43;;;;;;;2.65;2.17;;;26.80;48.40;;;;;;5073911;28;20212;-73
2022/05/12 13:00:15;;;;;;;6.57;2.30;;;26.10;49.20;;;;;;5073690;28;20602;-73
2022/05/12 13:02:44;;;;;;;3.17;1.70;;;25.80;50.40;;;;;;5073919;28;20203;-73
2022/05/12 13:05:18;;;;;;;4.80;2.30;;;26.50;48.00;;;;;;5073768;28;20217;-73
2022/05/12 13:07:55;;;;;;;2.40;1.98;;;26.80;48.20;;;;;;5073450;28;20564;-73
2022/05/12 13:10:22;;;;;;;4.35;2.20;;;27.80;47.60;;;;;;5073555;28;20193;-73
2022/05/12 13:12:54;;;;;;;3.80;2.22;;;27.90;46.20;;;;;;5073819;28;20205;-73
2022/05/12 13:15:22;;;;;;;4.88;2.00;;;28.70;44.40;;;;;;5073774;28;20461;-73
2022/05/12 13:17:51;;;;;;;3.40;2.17;;;27.40;45.90;;;;;;5073500;28;20603;-73
2022/05/12 13:20:22;;;;;;;8.00;2.38;;;28.80;44.50;;;;;;5073578;28;20221;-73
2022/05/12 13:22:53;;;;;;;3.55;1.98;;;27.90;46.40;;;;;;5073355;28;20204;-73
2022/05/12 13:25:22;;;;;;;3.53;1.88;;;27.40;45.30;;;;;;5073233;28;20533;-73
2022/05/12 13:27:50;;;;;;;3.38;2.00;;;27.80;43.90;;;;;;5073399;28;20197;-73